createdAt,value
2018-08-31T00:00:45.857Z,18.90
2018-08-31T00:03:24.223Z,18.90
2018-08-31T00:06:07.139Z,18.90
2018-08-31T00:09:08.812Z,18.80
2018-08-31T00:12:49.701Z,18.80
2018-08-31T00:15:23.156Z,18.70
2018-08-31T00:17:58.726Z,18.70
2018-08-31T00:20:41.031Z,18.70
2018-08-31T00:23:25.996Z,18.70
2018-08-31T00:28:10.817Z,18.80
2018-08-31T00:30:52.359Z,18.80
2018-08-31T00:45:36.853Z,18.90
2018-08-31T00:48:14.142Z,18.50
2018-08-31T00:50:52.609Z,18.50
2018-08-31T00:56:45.931Z,18.50
2018-08-31T00:59:18.496Z,18.50
2018-08-31T01:01:51.055Z,18.50
2018-08-31T01:04:26.097Z,18.50
2018-08-31T01:07:01.866Z,18.60
2018-08-31T01:09:39.394Z,18.60
2018-08-31T01:12:16.659Z,18.70
2018-08-31T01:14:49.999Z,18.80
2018-08-31T01:17:24.680Z,18.90
2018-08-31T01:19:59.859Z,19.00
2018-08-31T01:22:34.751Z,19.00
2018-08-31T01:25:08.644Z,19.00
2018-08-31T01:27:41.330Z,19.00
2018-08-31T01:30:13.790Z,19.00
2018-08-31T01:32:46.344Z,19.00
2018-08-31T01:35:18.881Z,19.00
2018-08-31T01:37:51.988Z,19.00
2018-08-31T01:40:24.495Z,19.00
2018-08-31T01:42:57.273Z,19.00
2018-08-31T01:45:29.700Z,19.00
2018-08-31T01:48:02.444Z,18.90
2018-08-31T01:50:34.896Z,18.90
2018-08-31T01:53:07.911Z,18.80
2018-08-31T01:55:40.328Z,18.80
2018-08-31T01:58:12.816Z,18.60
2018-08-31T02:00:45.771Z,18.50
2018-08-31T02:03:18.199Z,18.50
2018-08-31T02:05:50.759Z,18.60
2018-08-31T02:08:23.655Z,18.70
2018-08-31T02:10:56.193Z,18.70
2018-08-31T02:13:29.044Z,18.70
2018-08-31T02:16:02.023Z,18.70
2018-08-31T02:18:37.726Z,18.70
2018-08-31T02:21:09.860Z,18.60
2018-08-31T02:23:42.526Z,18.50
2018-08-31T02:26:17.557Z,18.60
2018-08-31T02:28:50.028Z,18.50
2018-08-31T02:31:22.819Z,18.40
2018-08-31T02:33:55.879Z,18.40
2018-08-31T02:36:28.520Z,18.30
2018-08-31T02:39:01.709Z,18.20
2018-08-31T02:41:35.334Z,18.40
2018-08-31T02:44:41.408Z,18.50
2018-08-31T02:47:14.375Z,18.60
2018-08-31T02:49:47.241Z,18.60
2018-08-31T02:52:19.564Z,18.70
2018-08-31T02:54:52.479Z,18.60
2018-08-31T02:57:25.635Z,18.60
2018-08-31T03:00:06.169Z,18.50
2018-08-31T03:02:50.964Z,18.50
2018-08-31T03:05:23.577Z,18.50
2018-08-31T03:07:57.686Z,18.50
2018-08-31T03:10:35.111Z,18.50
2018-08-31T03:13:22.392Z,18.50
2018-08-31T03:16:07.734Z,18.40
2018-08-31T03:18:44.403Z,18.40
2018-08-31T03:21:21.626Z,18.30
2018-08-31T03:23:54.965Z,18.30
2018-08-31T03:26:30.748Z,18.40
2018-08-31T03:29:05.196Z,18.40
2018-08-31T03:31:37.696Z,18.30
2018-08-31T03:34:10.323Z,18.30
2018-08-31T03:36:42.875Z,18.30
2018-08-31T03:39:15.661Z,18.20
2018-08-31T03:41:48.200Z,18.20
2018-08-31T03:44:20.420Z,18.10
2018-08-31T03:46:52.726Z,18.10
2018-08-31T03:49:24.981Z,17.90
2018-08-31T03:51:57.112Z,17.80
2018-08-31T03:54:29.297Z,17.80
2018-08-31T03:57:02.277Z,17.70
2018-08-31T03:59:34.726Z,17.70
2018-08-31T04:02:07.555Z,17.70
2018-08-31T04:04:39.677Z,17.70
2018-08-31T04:07:11.908Z,17.70
2018-08-31T04:09:44.277Z,17.80
2018-08-31T04:12:16.566Z,17.80
2018-08-31T04:14:48.915Z,17.90
2018-08-31T04:17:21.149Z,17.90
2018-08-31T04:19:57.366Z,18.00
2018-08-31T04:22:30.303Z,18.10
2018-08-31T04:25:02.684Z,18.10
2018-08-31T04:27:35.311Z,18.10
2018-08-31T04:30:08.019Z,18.20
2018-08-31T04:32:40.282Z,18.20
2018-08-31T04:35:13.838Z,18.10
2018-08-31T04:37:46.788Z,18.10
2018-08-31T04:40:19.217Z,18.10
2018-08-31T04:42:52.094Z,18.10
2018-08-31T04:45:24.350Z,18.00
2018-08-31T04:47:56.462Z,17.90
2018-08-31T04:50:30.709Z,17.90
2018-08-31T04:53:07.284Z,17.90
2018-08-31T04:55:40.798Z,17.90
2018-08-31T04:58:13.353Z,17.80
2018-08-31T05:00:45.676Z,17.80
2018-08-31T05:03:18.536Z,17.70
2018-08-31T05:05:51.037Z,17.70
2018-08-31T05:11:44.832Z,17.60
2018-08-31T05:14:17.416Z,17.60
2018-08-31T05:16:50.545Z,17.60
2018-08-31T05:19:23.089Z,17.60
2018-08-31T05:22:22.169Z,17.70
2018-08-31T05:28:16.404Z,17.60
2018-08-31T05:30:49.121Z,17.60
2018-08-31T05:33:21.924Z,17.60
2018-08-31T05:35:54.302Z,17.70
2018-08-31T05:38:26.904Z,17.70
2018-08-31T05:40:59.458Z,17.70
2018-08-31T05:43:31.809Z,17.70
2018-08-31T05:46:04.437Z,17.80
2018-08-31T05:48:37.147Z,17.80
2018-08-31T05:51:09.379Z,17.70
2018-08-31T05:54:06.290Z,17.70
2018-08-31T05:56:39.995Z,17.60
2018-08-31T05:59:13.660Z,17.50
2018-08-31T06:01:46.911Z,17.40
2018-08-31T06:04:20.249Z,17.40
2018-08-31T06:06:53.417Z,17.40
2018-08-31T06:09:26.264Z,17.30
2018-08-31T06:11:58.914Z,17.30
2018-08-31T06:14:31.714Z,17.30
2018-08-31T06:17:04.376Z,17.20
2018-08-31T06:19:37.026Z,17.10
2018-08-31T06:22:09.475Z,17.10
2018-08-31T06:24:41.971Z,17.10
2018-08-31T06:27:14.643Z,17.00
2018-08-31T06:33:09.289Z,16.90
2018-08-31T06:35:42.620Z,16.90
2018-08-31T06:38:17.578Z,16.90
2018-08-31T06:40:51.580Z,16.90
2018-08-31T06:43:25.301Z,16.90
2018-08-31T06:45:58.976Z,16.90
2018-08-31T06:48:32.728Z,16.90
2018-08-31T06:51:06.556Z,16.90
2018-08-31T06:53:39.905Z,16.80
2018-08-31T06:56:14.244Z,16.80
2018-08-31T06:58:48.376Z,16.80
2018-08-31T07:01:22.173Z,16.80
2018-08-31T07:03:55.741Z,16.80
2018-08-31T07:06:29.344Z,16.80
2018-08-31T07:09:17.435Z,16.80
2018-08-31T07:11:52.129Z,16.80
2018-08-31T07:14:25.916Z,16.80
2018-08-31T07:16:59.831Z,16.80
2018-08-31T07:19:33.215Z,16.80
2018-08-31T07:22:06.938Z,16.80
2018-08-31T07:24:40.490Z,16.90
2018-08-31T07:27:14.195Z,16.90
2018-08-31T07:29:47.719Z,16.90
2018-08-31T07:32:21.406Z,17.00
2018-08-31T07:34:55.113Z,17.00
2018-08-31T07:37:28.700Z,17.00
2018-08-31T07:40:02.346Z,17.00
2018-08-31T07:42:36.004Z,17.00
2018-08-31T07:45:09.645Z,17.00
2018-08-31T07:47:43.155Z,16.90
2018-08-31T07:50:16.824Z,16.80
2018-08-31T07:52:50.313Z,16.80
2018-08-31T07:55:23.753Z,16.90
2018-08-31T07:57:57.233Z,16.80
2018-08-31T08:00:30.714Z,16.90
2018-08-31T08:03:04.175Z,16.90
2018-08-31T08:05:37.767Z,16.80
2018-08-31T08:08:11.380Z,16.80
2018-08-31T08:10:45.028Z,16.90
2018-08-31T08:13:18.465Z,16.90
2018-08-31T08:15:52.160Z,16.90
2018-08-31T08:18:25.760Z,16.80
2018-08-31T08:20:59.223Z,16.80
2018-08-31T08:23:33.102Z,16.80
2018-08-31T08:26:06.526Z,16.80
2018-08-31T08:28:40.232Z,16.80
2018-08-31T08:31:14.369Z,16.80
2018-08-31T08:33:48.221Z,16.80
2018-08-31T08:36:22.276Z,16.80
2018-08-31T08:38:55.828Z,16.80
2018-08-31T08:41:29.432Z,16.80
2018-08-31T08:44:02.992Z,16.80
2018-08-31T08:46:36.677Z,16.70
2018-08-31T08:49:45.057Z,16.60
2018-08-31T08:52:17.212Z,16.60
2018-08-31T08:54:49.468Z,16.50
2018-08-31T08:57:22.401Z,16.40
2018-08-31T08:59:54.775Z,16.40
2018-08-31T09:02:27.104Z,16.40
2018-08-31T09:04:59.360Z,16.30
2018-08-31T09:07:31.867Z,16.30
2018-08-31T09:10:05.842Z,16.30
2018-08-31T09:12:38.315Z,16.20
2018-08-31T09:15:11.137Z,16.20
2018-08-31T09:17:43.512Z,16.20
2018-08-31T09:20:15.925Z,16.20
2018-08-31T09:22:48.382Z,16.20
2018-08-31T09:25:20.938Z,16.10
2018-08-31T09:27:53.300Z,16.10
2018-08-31T09:30:29.839Z,16.10
2018-08-31T09:33:02.287Z,16.10
2018-08-31T09:35:34.597Z,16.10
2018-08-31T09:38:07.739Z,16.00
2018-08-31T09:40:40.529Z,16.00
2018-08-31T09:43:13.246Z,16.00
2018-08-31T09:45:46.216Z,16.00
2018-08-31T09:48:18.563Z,16.00
2018-08-31T09:50:50.815Z,15.90
2018-08-31T09:53:23.309Z,16.00
2018-08-31T09:55:55.450Z,16.00
2018-08-31T09:58:27.984Z,16.00
2018-08-31T10:03:07.159Z,16.00
2018-08-31T10:05:39.777Z,16.00
2018-08-31T10:08:13.897Z,16.00
2018-08-31T10:10:48.382Z,16.00
2018-08-31T10:13:21.034Z,16.00
2018-08-31T10:15:53.886Z,16.00
2018-08-31T10:18:26.165Z,16.00
2018-08-31T10:20:58.422Z,16.00
2018-08-31T10:23:37.045Z,16.00
2018-08-31T10:26:12.491Z,16.00
2018-08-31T10:28:47.217Z,16.00
2018-08-31T10:31:19.636Z,16.00
2018-08-31T10:33:52.108Z,16.00
2018-08-31T10:36:24.836Z,15.90
2018-08-31T10:38:57.564Z,15.90
2018-08-31T10:41:29.900Z,15.90
2018-08-31T10:44:02.417Z,15.90
2018-08-31T10:46:35.382Z,15.90
2018-08-31T10:49:08.140Z,15.90
2018-08-31T10:51:40.605Z,15.90
2018-08-31T10:54:13.304Z,15.90
2018-08-31T10:56:45.703Z,15.90
2018-08-31T10:59:18.031Z,15.90
2018-08-31T11:01:52.458Z,15.90
2018-08-31T11:04:26.122Z,15.80
2018-08-31T11:06:58.557Z,15.80
2018-08-31T11:09:30.702Z,15.80
2018-08-31T11:12:03.087Z,15.80
2018-08-31T11:14:36.257Z,15.80
2018-08-31T11:17:09.916Z,15.80
2018-08-31T11:19:43.895Z,15.80
2018-08-31T11:22:17.725Z,15.80
2018-08-31T11:24:51.658Z,15.80
2018-08-31T11:27:25.594Z,15.80
2018-08-31T11:29:58.402Z,15.80
2018-08-31T11:32:30.658Z,15.80
2018-08-31T11:35:03.185Z,15.80
2018-08-31T11:37:35.770Z,15.80
2018-08-31T11:40:08.864Z,15.90
2018-08-31T11:42:41.108Z,15.80
2018-08-31T11:45:13.453Z,15.80
2018-08-31T11:47:46.709Z,15.80
2018-08-31T11:50:20.169Z,15.80
2018-08-31T11:52:52.664Z,15.80
2018-08-31T11:55:25.189Z,15.80
2018-08-31T11:57:57.640Z,15.80
2018-08-31T12:00:30.241Z,15.80
2018-08-31T12:03:02.832Z,15.80
2018-08-31T12:05:35.113Z,15.90
2018-08-31T12:08:07.481Z,15.90
2018-08-31T12:10:40.071Z,15.90
2018-08-31T12:13:12.580Z,15.90
2018-08-31T12:15:44.996Z,15.90
2018-08-31T12:18:18.121Z,15.90
2018-08-31T12:20:50.594Z,16.00
2018-08-31T12:23:22.977Z,16.10
2018-08-31T12:25:55.256Z,16.40
2018-08-31T12:28:28.293Z,16.70
2018-08-31T12:31:00.642Z,16.80
2018-08-31T12:33:34.158Z,16.80
2018-08-31T12:36:06.982Z,16.60
2018-08-31T12:38:41.902Z,16.60
2018-08-31T12:41:14.217Z,16.50
2018-08-31T12:43:48.045Z,16.50
2018-08-31T12:46:20.622Z,16.50
2018-08-31T12:48:53.248Z,16.60
2018-08-31T12:51:25.930Z,16.80
2018-08-31T12:53:58.788Z,17.20
2018-08-31T12:56:31.133Z,17.70
2018-08-31T12:59:03.774Z,18.10
2018-08-31T13:01:36.156Z,18.40
2018-08-31T13:04:08.355Z,18.10
2018-08-31T13:06:45.123Z,17.50
2018-08-31T13:09:17.360Z,17.20
2018-08-31T13:11:49.589Z,17.10
2018-08-31T13:14:21.900Z,17.10
2018-08-31T13:16:54.021Z,17.20
2018-08-31T13:19:26.188Z,17.20
2018-08-31T13:21:59.162Z,17.60
2018-08-31T13:24:31.329Z,18.00
2018-08-31T13:27:03.607Z,18.00
2018-08-31T13:29:37.166Z,18.10
2018-08-31T13:32:09.530Z,18.10
2018-08-31T13:34:50.906Z,18.50
2018-08-31T13:37:23.405Z,18.80
2018-08-31T13:39:55.531Z,18.80
2018-08-31T13:42:27.780Z,18.50
2018-08-31T13:44:59.944Z,18.80
2018-08-31T13:47:32.086Z,18.50
2018-08-31T13:50:04.889Z,18.60
2018-08-31T13:52:37.180Z,19.40
2018-08-31T13:55:09.700Z,19.60
2018-08-31T13:57:42.006Z,19.30
2018-08-31T14:00:14.811Z,19.40
2018-08-31T14:02:47.016Z,19.70
2018-08-31T14:05:19.131Z,20.00
2018-08-31T14:07:51.464Z,19.70
2018-08-31T14:10:23.907Z,19.40
2018-08-31T14:12:56.281Z,19.60
2018-08-31T14:15:28.835Z,19.60
2018-08-31T14:18:01.913Z,20.20
2018-08-31T14:20:34.254Z,20.30
2018-08-31T14:23:07.012Z,20.40
2018-08-31T14:25:39.490Z,21.00
2018-08-31T14:28:12.301Z,20.70
2018-08-31T14:30:45.161Z,20.30
2018-08-31T14:33:18.224Z,20.30
2018-08-31T14:35:50.705Z,21.10
2018-08-31T14:38:27.002Z,21.20
2018-08-31T14:40:59.291Z,22.10
2018-08-31T14:43:31.561Z,22.20
2018-08-31T14:48:50.744Z,21.20
2018-08-31T14:51:35.036Z,22.00
2018-08-31T14:54:17.369Z,22.50
2018-08-31T14:56:49.589Z,23.50
2018-08-31T14:59:28.455Z,23.80
2018-08-31T15:02:06.123Z,23.70
2018-08-31T15:04:58.267Z,23.50
2018-08-31T15:07:51.557Z,24.60
2018-08-31T15:10:48.927Z,24.10
2018-08-31T15:16:45.072Z,24.70
2018-08-31T15:19:39.580Z,25.20
2018-08-31T15:22:35.891Z,24.60
2018-08-31T15:25:32.098Z,23.60
2018-08-31T15:28:27.491Z,23.20
2018-08-31T15:31:17.549Z,23.50
2018-08-31T15:34:11.472Z,22.90
2018-08-31T15:36:44.869Z,23.20
2018-08-31T15:39:17.438Z,23.20
2018-08-31T15:41:50.406Z,24.00
2018-08-31T15:44:23.189Z,23.60
2018-08-31T15:46:58.101Z,22.20
2018-08-31T15:49:31.875Z,22.00
2018-08-31T15:52:10.767Z,22.60
2018-08-31T15:54:46.790Z,22.60
2018-08-31T15:57:24.845Z,22.80
2018-08-31T16:00:02.550Z,22.10
2018-08-31T16:02:37.339Z,22.90
2018-08-31T16:05:13.153Z,23.80
2018-08-31T16:07:45.835Z,25.10
2018-08-31T16:10:18.288Z,26.00
2018-08-31T16:12:50.921Z,24.80
2018-08-31T16:15:23.864Z,24.90
2018-08-31T16:21:17.046Z,23.70
2018-08-31T16:23:49.981Z,24.10
2018-08-31T16:26:22.472Z,24.80
2018-08-31T16:28:54.729Z,26.00
2018-08-31T16:31:26.968Z,26.60
2018-08-31T16:34:06.518Z,26.10
2018-08-31T16:36:39.302Z,25.40
2018-08-31T16:39:12.625Z,25.00
2018-08-31T16:41:45.162Z,24.30
2018-08-31T16:44:17.309Z,23.30
2018-08-31T16:46:49.941Z,23.90
2018-08-31T16:49:21.979Z,25.30
2018-08-31T16:51:54.036Z,24.90
2018-08-31T16:54:26.486Z,25.30
2018-08-31T16:56:59.171Z,25.20
2018-08-31T16:59:31.731Z,25.00
2018-08-31T17:02:03.979Z,26.20
2018-08-31T17:04:36.659Z,26.00
2018-08-31T17:07:08.967Z,26.30
2018-08-31T17:09:44.148Z,27.20
2018-08-31T17:12:16.478Z,26.30
2018-08-31T17:14:51.309Z,27.00
2018-08-31T17:17:23.324Z,26.50
2018-08-31T17:20:00.082Z,25.70
2018-08-31T17:25:57.085Z,27.80
2018-08-31T17:28:35.546Z,26.40
2018-08-31T17:31:12.391Z,27.60
2018-08-31T17:33:50.428Z,28.00
2018-08-31T17:36:27.910Z,28.30
2018-08-31T17:39:00.868Z,29.30
2018-08-31T17:41:33.769Z,28.10
2018-08-31T17:44:13.332Z,27.40
2018-08-31T17:46:47.675Z,27.30
2018-08-31T17:49:20.633Z,27.40
2018-08-31T17:51:53.813Z,27.70
2018-08-31T17:54:29.967Z,26.80
2018-08-31T17:57:03.009Z,27.60
2018-08-31T17:59:35.795Z,28.60
2018-08-31T18:02:09.656Z,28.80
2018-08-31T18:04:42.160Z,27.60
2018-08-31T18:07:15.154Z,27.40
2018-08-31T18:09:47.905Z,27.00
2018-08-31T18:12:21.077Z,26.50
2018-08-31T18:14:53.827Z,25.80
2018-08-31T18:17:26.653Z,26.00
2018-08-31T18:19:59.765Z,25.70
2018-08-31T18:22:32.563Z,26.90
2018-08-31T18:25:05.018Z,28.10
2018-08-31T18:27:38.561Z,28.40
2018-08-31T18:30:11.735Z,27.30
2018-08-31T18:32:45.228Z,26.20
2018-08-31T18:35:21.610Z,26.60
2018-08-31T18:37:54.828Z,25.70
2018-08-31T18:40:28.402Z,25.30
2018-08-31T18:43:02.698Z,26.00
2018-08-31T18:45:36.213Z,26.50
2018-08-31T18:48:44.772Z,26.20
2018-08-31T18:51:21.066Z,26.20
2018-08-31T18:53:54.326Z,25.20
2018-08-31T18:56:26.836Z,24.90
2018-08-31T18:59:01.085Z,26.00
2018-08-31T19:01:33.489Z,26.90
2018-08-31T19:07:27.081Z,25.70
2018-08-31T19:10:00.564Z,25.60
2018-08-31T19:15:59.320Z,25.10
2018-08-31T19:18:32.255Z,25.00
2018-08-31T19:21:06.670Z,25.00
2018-08-31T19:23:39.883Z,25.10
2018-08-31T19:26:12.409Z,25.00
2018-08-31T19:28:44.941Z,25.10
2018-08-31T19:34:38.050Z,24.50
2018-08-31T19:37:10.443Z,24.20
2018-08-31T19:39:43.458Z,24.40
2018-08-31T19:42:17.394Z,24.70
2018-08-31T19:44:50.062Z,25.30
2018-08-31T19:47:23.647Z,26.60
2018-08-31T19:53:16.862Z,25.70
2018-08-31T19:55:49.307Z,25.30
2018-08-31T19:58:22.275Z,25.50
2018-08-31T20:00:54.590Z,25.30
2018-08-31T20:03:26.866Z,25.20
2018-08-31T20:05:59.381Z,24.80
2018-08-31T20:08:31.927Z,24.80
2018-08-31T20:14:26.476Z,24.70
2018-08-31T20:16:58.968Z,25.00
2018-08-31T20:19:32.294Z,25.00
2018-08-31T20:22:05.844Z,24.60
2018-08-31T20:24:38.282Z,24.90
2018-08-31T20:30:33.699Z,24.80
2018-08-31T20:33:06.352Z,24.50
2018-08-31T20:35:39.311Z,23.90
2018-08-31T20:41:17.880Z,21.80
2018-08-31T20:44:02.308Z,21.20
2018-08-31T20:46:42.614Z,21.00
2018-08-31T20:49:18.240Z,21.10
2018-08-31T20:51:55.191Z,21.10
2018-08-31T20:55:12.554Z,21.00
2018-08-31T20:57:45.240Z,21.10
2018-08-31T21:00:29.656Z,21.30
2018-08-31T21:03:06.942Z,21.40
2018-08-31T21:05:43.534Z,21.50
2018-08-31T21:11:17.221Z,21.60
2018-08-31T21:14:08.287Z,21.60
2018-08-31T21:16:47.567Z,21.50
2018-08-31T21:19:39.160Z,21.50
2018-08-31T21:22:27.928Z,21.50
2018-08-31T21:25:08.661Z,21.40
2018-08-31T21:27:48.171Z,21.50
2018-08-31T21:30:20.962Z,21.50
2018-08-31T21:32:53.945Z,21.40
2018-08-31T21:35:26.686Z,21.50
2018-08-31T21:37:59.508Z,21.50
2018-08-31T21:40:32.340Z,21.40
2018-08-31T21:43:05.158Z,21.30
2018-08-31T21:45:37.925Z,21.30
2018-08-31T21:51:40.981Z,21.00
2018-08-31T21:54:16.901Z,21.00
2018-08-31T21:56:49.231Z,20.80
2018-08-31T21:59:21.941Z,20.80
2018-08-31T22:01:56.733Z,20.90
2018-08-31T22:04:30.549Z,20.90
2018-08-31T22:07:03.256Z,21.00
2018-08-31T22:09:36.357Z,21.00
2018-08-31T22:12:09.877Z,21.00
2018-08-31T22:18:13.280Z,21.10
2018-08-31T22:24:17.614Z,21.10
2018-08-31T22:26:50.252Z,21.00
2018-08-31T22:29:23.111Z,21.10
2018-08-31T22:31:55.390Z,21.10
2018-08-31T22:34:29.388Z,21.00
2018-08-31T22:37:02.391Z,21.10
2018-08-31T22:39:34.923Z,21.10
2018-08-31T22:42:08.131Z,21.00
2018-08-31T22:44:44.168Z,21.00
2018-08-31T22:47:17.886Z,21.10
2018-08-31T22:49:51.026Z,21.10
2018-08-31T22:52:25.860Z,21.10
2018-08-31T22:54:58.740Z,21.00
2018-08-31T22:57:32.053Z,21.00
2018-08-31T23:00:04.854Z,20.90
2018-08-31T23:02:37.857Z,20.80
2018-08-31T23:05:11.614Z,20.70
2018-08-31T23:07:48.844Z,20.60
2018-08-31T23:10:21.675Z,20.60
2018-08-31T23:12:54.793Z,20.50
2018-08-31T23:15:28.091Z,20.40
2018-08-31T23:18:00.908Z,20.40
2018-08-31T23:20:33.987Z,20.30
2018-08-31T23:23:11.476Z,20.30
2018-08-31T23:25:51.680Z,20.30
2018-08-31T23:28:24.677Z,20.40
2018-08-31T23:30:57.463Z,20.30
2018-08-31T23:33:30.529Z,20.30
2018-08-31T23:36:03.815Z,20.30
2018-08-31T23:38:36.728Z,20.30
2018-08-31T23:41:11.543Z,20.20
2018-08-31T23:43:44.524Z,20.20
2018-08-31T23:46:17.699Z,20.10
2018-08-31T23:48:50.587Z,20.00
2018-08-31T23:51:23.307Z,20.00
2018-08-31T23:53:57.262Z,19.90
2018-08-31T23:56:30.243Z,19.80
2018-08-31T23:59:03.117Z,19.80
